Time;durP1;ratioP1;P1;durP2;ratioP2;P2;SDS_P1;SDS_P2;PMS_P1;PMS_P2;Temp;Humidity;BMP_temperature;BMP_pressure;BME280_temperature;BME280_humidity;BME280_pressure;Samples;Min_cycle;Max_cycle;Signal;HPM_P1;HPM_P2
2022/03/02 00:00:28;;;;;;;;;;;7.30;83.00;;;;;;5088437;28;20002;-76
2022/03/02 00:02:54;;;;;;;;;;;7.50;83.20;;;;;;5089840;28;19912;-76
2022/03/02 00:05:20;;;;;;;;;;;7.50;83.20;;;;;;5088531;28;19995;-76
2022/03/02 00:07:45;;;;;;;;;;;7.60;83.20;;;;;;5089588;28;20203;-76
2022/03/02 00:10:11;;;;;;;;;;;7.70;83.90;;;;;;5088298;28;19936;-76
2022/03/02 00:12:36;;;;;;;;;;;7.70;83.90;;;;;;5089639;28;19912;-76
2022/03/02 00:15:03;;;;;;;;;;;7.80;83.90;;;;;;5087303;28;19913;-76
2022/03/02 00:17:28;;;;;;;;;;;7.80;83.90;;;;;;5089448;28;19914;-76
2022/03/02 00:19:54;;;;;;;;;;;7.80;84.10;;;;;;5089506;28;20269;-76
2022/03/02 00:22:19;;;;;;;;;;;7.80;84.20;;;;;;5089428;28;19923;-76
2022/03/02 00:24:50;;;;;;;;;;;7.80;84.40;;;;;;5089190;28;19958;-76
2022/03/02 00:27:17;;;;;;;;;;;7.70;85.10;;;;;;5089202;28;19918;-76
2022/03/02 00:29:42;;;;;;;;;;;7.80;85.40;;;;;;5089039;28;19971;-76
2022/03/02 00:32:08;;;;;;;;;;;7.80;85.80;;;;;;5087713;28;19955;-76
2022/03/02 00:34:33;;;;;;;;;;;7.80;86.40;;;;;;5089196;28;19966;-76
2022/03/02 00:36:59;;;;;;;;;;;7.90;86.30;;;;;;5089341;28;19913;-76
2022/03/02 00:39:24;;;;;;;;;;;8.00;86.40;;;;;;5089028;28;19955;-76
2022/03/02 00:41:51;;;;;;;;;;;8.00;86.30;;;;;;5088955;28;19923;-76
2022/03/02 00:44:16;;;;;;;;;;;8.10;86.20;;;;;;5087426;28;19951;-76
2022/03/02 00:46:42;;;;;;;;;;;8.10;86.10;;;;;;5087636;28;19955;-76
2022/03/02 00:49:08;;;;;;;;;;;8.10;86.00;;;;;;5089112;28;20338;-76
2022/03/02 00:51:34;;;;;;;;;;;8.10;86.10;;;;;;5088848;28;20376;-76
2022/03/02 00:53:59;;;;;;;;;;;8.20;85.90;;;;;;5087581;28;19962;-77
2022/03/02 00:56:25;;;;;;;;;;;8.10;85.90;;;;;;5088739;28;20003;-75
2022/03/02 00:58:51;;;;;;;;;;;8.10;85.80;;;;;;5088603;28;19954;-76
2022/03/02 01:01:16;;;;;;;;;;;8.10;85.90;;;;;;5088687;28;19927;-76
2022/03/02 01:03:42;;;;;;;;;;;8.10;86.00;;;;;;5088876;28;19915;-76
2022/03/02 01:06:09;;;;;;;;;;;8.20;86.10;;;;;;5088644;28;19916;-76
2022/03/02 01:08:34;;;;;;;;;;;8.10;86.00;;;;;;5088567;28;19919;-76
2022/03/02 01:11:00;;;;;;;;;;;8.20;86.00;;;;;;5088548;28;19912;-76
2022/03/02 01:13:25;;;;;;;;;;;8.20;85.90;;;;;;5088576;28;20415;-76
2022/03/02 01:15:51;;;;;;;;;;;8.20;85.70;;;;;;5087239;28;19935;-76
2022/03/02 01:18:17;;;;;;;;;;;8.30;85.80;;;;;;5088448;28;20020;-76
2022/03/02 01:20:42;;;;;;;;;;;8.30;85.80;;;;;;5088327;28;19920;-75
2022/03/02 01:23:08;;;;;;;;;;;8.30;85.80;;;;;;5087059;28;19916;-76
2022/03/02 01:25:33;;;;;;;;;;;8.30;85.70;;;;;;5088295;28;19912;-76
2022/03/02 01:28:00;;;;;;;;;;;8.30;86.10;;;;;;5088287;28;19951;-76
2022/03/02 01:30:26;;;;;;;;;;;8.20;86.10;;;;;;5087988;28;20156;-76
2022/03/02 01:32:51;;;;;;;;;;;8.20;86.20;;;;;;5088338;28;19920;-76
2022/03/02 01:35:17;;;;;;;;;;;8.10;86.30;;;;;;5087070;28;19924;-76
2022/03/02 01:37:43;;;;;;;;;;;8.10;86.50;;;;;;5088161;28;19908;-76
2022/03/02 01:40:09;;;;;;;;;;;8.00;86.50;;;;;;5088173;28;19912;-76
2022/03/02 01:42:36;;;;;;;;;;;8.00;86.60;;;;;;5088232;28;19931;-76
2022/03/02 01:45:02;;;;;;;;;;;8.00;86.80;;;;;;5088289;28;19912;-75
2022/03/02 01:47:28;;;;;;;;;;;8.00;87.00;;;;;;5087997;28;19915;-76
2022/03/02 01:49:53;;;;;;;;;;;8.10;87.00;;;;;;5088308;28;20003;-76
2022/03/02 01:52:19;;;;;;;;;;;8.10;87.00;;;;;;5086825;28;19912;-76
2022/03/02 01:54:45;;;;;;;;;;;8.20;87.00;;;;;;5087986;28;19912;-76
2022/03/02 01:57:10;;;;;;;;;;;8.20;87.00;;;;;;5087849;28;20248;-76
2022/03/02 01:59:36;;;;;;;;;;;8.30;87.10;;;;;;5088007;28;20061;-76
2022/03/02 02:02:02;;;;;;;;;;;8.40;87.00;;;;;;5087919;28;19931;-76
2022/03/02 02:04:27;;;;;;;;;;;8.40;87.00;;;;;;5088149;28;20269;-76
2022/03/02 02:06:53;;;;;;;;;;;8.50;87.00;;;;;;5086667;28;20404;-76
2022/03/02 02:09:19;;;;;;;;;;;8.50;86.90;;;;;;5087992;28;19999;-76
2022/03/02 02:11:44;;;;;;;;;;;8.50;86.90;;;;;;5087996;28;19915;-76
2022/03/02 02:14:10;;;;;;;;;;;8.50;86.80;;;;;;5087942;28;19909;-76
2022/03/02 02:16:36;;;;;;;;;;;8.50;86.80;;;;;;5087964;28;19961;-76
2022/03/02 02:19:01;;;;;;;;;;;8.60;87.40;;;;;;5088148;28;19920;-76
2022/03/02 02:21:27;;;;;;;;;;;8.60;87.20;;;;;;5086586;28;20309;-76
2022/03/02 02:23:53;;;;;;;;;;;8.60;87.10;;;;;;5086693;28;19916;-76
2022/03/02 02:26:21;;;;;;;;;;;8.60;87.00;;;;;;5087759;28;19943;-76
2022/03/02 02:28:47;;;;;;;;;;;8.60;87.00;;;;;;5087722;28;19912;-77
2022/03/02 02:31:13;;;;;;;;;;;8.70;87.00;;;;;;5086243;28;19927;-77
2022/03/02 02:33:38;;;;;;;;;;;8.70;87.10;;;;;;5087708;28;20285;-76
2022/03/02 02:36:04;;;;;;;;;;;8.70;87.00;;;;;;5087715;28;19912;-76
2022/03/02 02:38:30;;;;;;;;;;;8.60;87.00;;;;;;5089118;28;19945;-76
2022/03/02 02:40:55;;;;;;;;;;;8.60;87.30;;;;;;5091288;28;20354;-76
2022/03/02 02:43:22;;;;;;;;;;;8.60;87.30;;;;;;5091298;28;19930;-76
2022/03/02 02:45:48;;;;;;;;;;;8.60;87.50;;;;;;5091292;28;20024;-75
2022/03/02 02:48:13;;;;;;;;;;;8.50;87.50;;;;;;5091032;28;19948;-76
2022/03/02 02:50:39;;;;;;;;;;;8.50;87.40;;;;;;5091110;28;19912;-75
2022/03/02 02:53:09;;;;;;;;;;;8.50;87.60;;;;;;5089873;28;20002;-76
2022/03/02 02:55:35;;;;;;;;;;;8.60;87.60;;;;;;5090961;28;19983;-76
2022/03/02 02:58:01;;;;;;;;;;;8.60;87.50;;;;;;5072934;28;19916;-76
2022/03/02 03:00:28;;;;;;;;;;;8.60;87.40;;;;;;5090822;28;19962;-77
2022/03/02 03:02:55;;;;;;;;;;;8.70;87.40;;;;;;5090856;28;19956;-76
2022/03/02 03:05:22;;;;;;;;;;;8.70;87.30;;;;;;5090823;28;19915;-76
2022/03/02 03:07:48;;;;;;;;;;;8.70;87.20;;;;;;5090666;28;19919;-76
2022/03/02 03:10:14;;;;;;;;;;;8.70;87.30;;;;;;5090497;28;19912;-75
2022/03/02 03:12:42;;;;;;;;;;;8.70;87.50;;;;;;5089402;28;19912;-76
2022/03/02 03:15:09;;;;;;;;;;;8.70;87.40;;;;;;5090672;28;19915;-76
2022/03/02 03:17:34;;;;;;;;;;;8.70;87.40;;;;;;5089107;28;19908;-76
2022/03/02 03:20:00;;;;;;;;;;;8.70;87.30;;;;;;5090619;28;19908;-76
2022/03/02 03:22:26;;;;;;;;;;;8.70;87.40;;;;;;5090373;28;19923;-76
2022/03/02 03:24:52;;;;;;;;;;;8.70;87.40;;;;;;5090460;28;19954;-76
2022/03/02 03:27:18;;;;;;;;;;;8.70;87.40;;;;;;5090286;28;19916;-76
2022/03/02 03:29:43;;;;;;;;;;;8.70;87.40;;;;;;5090462;28;20109;-76
2022/03/02 03:32:09;;;;;;;;;;;8.80;87.60;;;;;;5090446;28;20389;-76
2022/03/02 03:34:34;;;;;;;;;;;8.80;87.40;;;;;;5088982;28;19957;-76
2022/03/02 03:37:00;;;;;;;;;;;8.80;87.50;;;;;;5090222;28;20363;-76
2022/03/02 03:39:26;;;;;;;;;;;8.70;87.60;;;;;;5090104;28;19919;-76
2022/03/02 03:41:51;;;;;;;;;;;8.70;87.80;;;;;;5071933;28;19924;-76
2022/03/02 03:44:17;;;;;;;;;;;8.80;87.90;;;;;;5090230;28;20034;-76
2022/03/02 03:46:42;;;;;;;;;;;8.80;87.90;;;;;;5090076;28;19958;-76
2022/03/02 03:49:09;;;;;;;;;;;8.90;87.90;;;;;;5089983;28;19919;-76
2022/03/02 03:51:35;;;;;;;;;;;8.90;87.80;;;;;;5089823;28;19912;-76
2022/03/02 03:54:00;;;;;;;;;;;8.90;87.70;;;;;;5089938;28;19912;-76
2022/03/02 03:56:28;;;;;;;;;;;8.90;87.90;;;;;;5089749;28;19967;-76
2022/03/02 03:58:53;;;;;;;;;;;8.90;87.80;;;;;;5089713;28;20380;-76
2022/03/02 04:01:19;;;;;;;;;;;8.90;87.80;;;;;;5088377;28;19916;-76
2022/03/02 04:03:45;;;;;;;;;;;8.90;87.70;;;;;;5088526;28;20255;-76
2022/03/02 04:06:10;;;;;;;;;;;8.90;87.70;;;;;;5089757;28;19953;-76
2022/03/02 04:08:36;;;;;;;;;;;8.90;87.90;;;;;;5089528;28;19923;-76
2022/03/02 04:11:01;;;;;;;;;;;8.90;88.00;;;;;;5089617;28;19917;-76
2022/03/02 04:13:27;;;;;;;;;;;8.90;88.00;;;;;;5089480;28;19969;-76
2022/03/02 04:15:53;;;;;;;;;;;8.90;87.90;;;;;;5088184;28;20006;-76
2022/03/02 04:18:18;;;;;;;;;;;8.80;88.00;;;;;;5089399;28;19912;-76
2022/03/02 04:20:44;;;;;;;;;;;8.80;88.10;;;;;;5089392;28;20444;-76
2022/03/02 04:23:10;;;;;;;;;;;8.80;88.10;;;;;;5089258;28;20325;-76
2022/03/02 04:25:36;;;;;;;;;;;8.80;88.20;;;;;;5089323;28;19934;-76
2022/03/02 04:28:01;;;;;;;;;;;8.80;88.20;;;;;;5089192;28;19923;-76
2022/03/02 04:30:28;;;;;;;;;;;8.80;88.30;;;;;;5088977;28;19916;-76
2022/03/02 04:32:54;;;;;;;;;;;8.80;88.30;;;;;;5087751;28;19981;-76
2022/03/02 04:35:19;;;;;;;;;;;8.80;88.60;;;;;;5089156;28;19912;-76
2022/03/02 04:37:45;;;;;;;;;;;8.80;88.70;;;;;;5087526;28;20380;-76
2022/03/02 04:40:11;;;;;;;;;;;8.80;88.90;;;;;;5088976;28;19917;-76
2022/03/02 04:42:37;;;;;;;;;;;8.80;89.00;;;;;;5089068;28;19979;-77
2022/03/02 04:45:04;;;;;;;;;;;8.70;89.00;;;;;;5089004;28;19912;-76
2022/03/02 04:47:29;;;;;;;;;;;8.70;89.10;;;;;;5087591;28;19957;-76
2022/03/02 04:49:55;;;;;;;;;;;8.70;89.10;;;;;;5088949;28;19947;-76
2022/03/02 04:52:21;;;;;;;;;;;8.60;89.00;;;;;;5087396;28;19989;-76
2022/03/02 04:57:31;;;;;;;;;;;8.60;89.70;;;;;;5087727;28;19958;-76
2022/03/02 04:59:56;;;;;;;;;;;8.50;89.50;;;;;;5088950;28;19908;-76
2022/03/02 05:02:22;;;;;;;;;;;8.50;89.60;;;;;;5087987;28;19918;-76
2022/03/02 05:04:49;;;;;;;;;;;8.50;89.70;;;;;;5088947;28;20251;-76
2022/03/02 05:07:15;;;;;;;;;;;8.40;89.80;;;;;;5088577;28;20053;-76
2022/03/02 05:09:41;;;;;;;;;;;8.40;89.80;;;;;;5088747;28;19956;-76
2022/03/02 05:12:07;;;;;;;;;;;8.40;89.80;;;;;;5087180;28;19920;-76
2022/03/02 05:14:33;;;;;;;;;;;8.40;89.90;;;;;;5087394;28;19939;-76
2022/03/02 05:16:59;;;;;;;;;;;8.40;89.70;;;;;;5088449;28;19918;-76
2022/03/02 05:19:25;;;;;;;;;;;8.40;89.80;;;;;;5088805;28;19916;-76
2022/03/02 05:21:50;;;;;;;;;;;8.30;89.70;;;;;;5087019;28;19917;-76
2022/03/02 05:24:16;;;;;;;;;;;8.30;90.00;;;;;;5088581;28;20232;-76
2022/03/02 05:26:42;;;;;;;;;;;8.20;90.20;;;;;;5088306;28;19909;-76
2022/03/02 05:29:07;;;;;;;;;;;8.10;90.30;;;;;;5088253;28;19926;-76
2022/03/02 05:31:33;;;;;;;;;;;8.00;90.50;;;;;;5086793;28;20374;-77
2022/03/02 05:33:59;;;;;;;;;;;8.00;90.60;;;;;;5088278;28;19931;-76
2022/03/02 05:36:25;;;;;;;;;;;8.00;90.70;;;;;;5086789;28;19916;-76
2022/03/02 05:38:52;;;;;;;;;;;8.10;90.60;;;;;;5086929;28;19915;-76
2022/03/02 05:41:18;;;;;;;;;;;8.10;90.50;;;;;;5088094;28;19916;-76
2022/03/02 05:43:43;;;;;;;;;;;8.10;90.50;;;;;;5088158;28;19908;-75
2022/03/02 05:46:09;;;;;;;;;;;8.10;90.50;;;;;;5086882;28;19923;-76
2022/03/02 05:48:34;;;;;;;;;;;8.10;90.70;;;;;;5087035;28;19913;-76
2022/03/02 05:51:00;;;;;;;;;;;8.20;90.60;;;;;;5087994;28;19998;-76
2022/03/02 05:53:25;;;;;;;;;;;8.20;90.70;;;;;;5088093;28;19912;-76
2022/03/02 05:55:51;;;;;;;;;;;8.20;90.60;;;;;;5087865;28;19916;-76
2022/03/02 05:58:16;;;;;;;;;;;8.20;90.60;;;;;;5086675;28;19921;-76
2022/03/02 06:00:42;;;;;;;;;;;8.20;90.60;;;;;;5087928;28;20247;-77
2022/03/02 06:03:08;;;;;;;;;;;8.20;90.70;;;;;;5086614;28;19974;-76
2022/03/02 06:05:34;;;;;;;;;;;8.20;90.90;;;;;;5088044;28;19994;-76
2022/03/02 06:08:00;;;;;;;;;;;8.20;91.00;;;;;;5087921;28;19995;-76
2022/03/02 06:10:26;;;;;;;;;;;8.20;91.00;;;;;;5086583;28;20297;-76
2022/03/02 06:12:51;;;;;;;;;;;8.20;91.00;;;;;;5087270;28;19912;-76
2022/03/02 06:15:17;;;;;;;;;;;8.30;91.10;;;;;;5091862;28;20630;-76
2022/03/02 06:17:43;;;;;;;;;;;8.30;91.10;;;;;;5091709;28;20335;-76
2022/03/02 06:20:09;;;;;;;;;;;8.30;91.10;;;;;;5090293;28;19912;-76
2022/03/02 06:22:34;;;;;;;;;;;8.30;91.10;;;;;;5091563;28;19918;-75
2022/03/02 06:25:00;;;;;;;;;;;8.30;91.10;;;;;;5091832;28;20267;-76
2022/03/02 06:27:26;;;;;;;;;;;8.40;91.20;;;;;;5090272;28;19931;-76
2022/03/02 06:29:51;;;;;;;;;;;8.30;91.10;;;;;;5091472;28;19912;-77
2022/03/02 06:32:17;;;;;;;;;;;8.40;91.20;;;;;;5091250;28;20274;-76
2022/03/02 06:34:42;;;;;;;;;;;8.40;91.20;;;;;;5091373;28;20270;-76
2022/03/02 06:37:08;;;;;;;;;;;8.40;91.20;;;;;;5090020;28;20033;-76
2022/03/02 06:39:34;;;;;;;;;;;8.40;91.20;;;;;;5090079;28;20428;-76
2022/03/02 06:42:21;;;;;;;;;;;8.40;91.20;;;;;;5073064;28;19947;-76
2022/03/02 06:44:50;;;;;;;;;;;8.40;91.20;;;;;;5091245;28;19915;-76
2022/03/02 06:47:18;;;;;;;;;;;8.40;91.20;;;;;;5090677;28;19921;-76
2022/03/02 06:49:47;;;;;;;;;;;8.40;91.20;;;;;;5090995;28;19908;-76
2022/03/02 06:52:15;;;;;;;;;;;8.40;91.30;;;;;;5090943;28;19953;-76
2022/03/02 06:54:42;;;;;;;;;;;8.40;91.30;;;;;;5090876;28;19908;-76
2022/03/02 06:57:09;;;;;;;;;;;8.40;91.30;;;;;;5090844;28;19915;-76
2022/03/02 06:59:38;;;;;;;;;;;8.40;91.60;;;;;;5090539;28;19909;-76
2022/03/02 07:02:05;;;;;;;;;;;8.30;91.30;;;;;;5090722;28;19916;-76
2022/03/02 07:04:33;;;;;;;;;;;8.30;91.40;;;;;;5090761;28;20006;-76
2022/03/02 07:06:58;;;;;;;;;;;8.30;91.50;;;;;;5090723;28;19912;-76
2022/03/02 07:09:25;;;;;;;;;;;8.20;91.50;;;;;;5091072;28;19920;-76
2022/03/02 07:11:50;;;;;;;;;;;8.20;91.50;;;;;;5090529;28;19999;-76
2022/03/02 07:14:16;;;;;;;;;;;8.20;91.60;;;;;;5090544;28;20002;-76
2022/03/02 07:16:43;;;;;;;;;;;8.20;91.70;;;;;;5089050;28;19916;-76
2022/03/02 07:19:09;;;;;;;;;;;8.10;91.70;;;;;;5090292;28;19912;-76
2022/03/02 07:21:37;;;;;;;;;;;8.10;91.80;;;;;;5088890;28;20101;-76
2022/03/02 07:24:11;;;;;;;;;;;8.10;91.80;;;;;;5090106;28;19908;-76
2022/03/02 07:26:38;;;;;;;;;;;8.10;92.00;;;;;;5090198;28;19909;-76
2022/03/02 07:29:07;;;;;;;;;;;8.10;92.10;;;;;;5089876;28;20313;-76
2022/03/02 07:31:34;;;;;;;;;;;8.00;92.40;;;;;;5089721;28;19926;-76
2022/03/02 07:34:02;;;;;;;;;;;8.00;92.50;;;;;;5090280;28;19985;-77
2022/03/02 07:36:27;;;;;;;;;;;8.00;92.60;;;;;;5090152;28;19955;-77
2022/03/02 07:38:53;;;;;;;;;;;8.00;92.70;;;;;;5089791;28;19955;-66
2022/03/02 07:41:18;;;;;;;;;;;8.00;92.70;;;;;;5089716;28;20018;-76
2022/03/02 07:43:46;;;;;;;;;;;8.10;92.70;;;;;;5089777;28;19908;-77
2022/03/02 07:46:12;;;;;;;;;;;8.10;92.60;;;;;;5089932;28;19916;-76
2022/03/02 07:48:38;;;;;;;;;;;8.10;92.60;;;;;;5088424;28;19970;-77
2022/03/02 07:51:05;;;;;;;;;;;8.10;92.60;;;;;;5089603;28;20381;-76
2022/03/02 07:53:32;;;;;;;;;;;8.20;92.60;;;;;;5088034;28;19969;-77
2022/03/02 07:55:58;;;;;;;;;;;8.20;92.60;;;;;;5089102;28;20284;-76
2022/03/02 07:58:24;;;;;;;;;;;8.10;92.80;;;;;;5088177;28;20319;-76
2022/03/02 08:00:52;;;;;;;;;;;8.20;92.70;;;;;;5087493;28;20010;-76
2022/03/02 08:03:18;;;;;;;;;;;8.20;92.80;;;;;;5089307;28;19912;-76
2022/03/02 08:05:45;;;;;;;;;;;8.20;92.80;;;;;;5089060;28;19942;-76
2022/03/02 08:08:10;;;;;;;;;;;8.20;92.90;;;;;;5087428;28;20299;-76
2022/03/02 08:10:36;;;;;;;;;;;8.20;93.00;;;;;;5089179;28;19935;-76
2022/03/02 08:13:02;;;;;;;;;;;8.30;93.00;;;;;;5088901;28;19916;-76
2022/03/02 08:15:28;;;;;;;;;;;8.30;93.10;;;;;;5088804;28;19918;-75
2022/03/02 08:17:54;;;;;;;;;;;8.30;93.10;;;;;;5088694;28;19986;-75
2022/03/02 08:20:20;;;;;;;;;;;8.30;93.10;;;;;;5088579;28;19916;-76
2022/03/02 08:22:48;;;;;;;;;;;8.30;93.10;;;;;;5089014;28;19912;-75
2022/03/02 08:25:14;;;;;;;;;;;8.40;93.20;;;;;;5088562;28;19908;-76
2022/03/02 08:27:41;;;;;;;;;;;8.40;93.10;;;;;;5086836;28;19926;-75
2022/03/02 08:30:08;;;;;;;;;;;8.40;93.20;;;;;;5088042;28;20446;-75
2022/03/02 08:32:40;;;;;;;;;;;8.40;93.20;;;;;;5088003;28;19920;-76
2022/03/02 08:35:06;;;;;;;;;;;8.40;93.30;;;;;;5087598;28;19957;-76
2022/03/02 08:37:32;;;;;;;;;;;8.40;93.40;;;;;;5087764;28;19909;-76
2022/03/02 08:39:58;;;;;;;;;;;8.40;93.40;;;;;;5087564;28;19908;-75
2022/03/02 08:42:24;;;;;;;;;;;8.50;93.40;;;;;;5088027;28;19912;-76
2022/03/02 08:44:50;;;;;;;;;;;8.50;93.50;;;;;;5088018;28;19984;-76
2022/03/02 08:47:15;;;;;;;;;;;8.50;93.40;;;;;;5088254;28;19967;-76
2022/03/02 08:49:41;;;;;;;;;;;8.50;93.40;;;;;;5086832;28;19950;-75
2022/03/02 08:52:07;;;;;;;;;;;8.60;93.40;;;;;;5087939;28;20254;-76
2022/03/02 08:54:43;;;;;;;;;;;8.60;93.50;;;;;;5087458;28;19956;-75
2022/03/02 08:57:09;;;;;;;;;;;8.60;93.40;;;;;;5087923;28;19912;-77
2022/03/02 08:59:36;;;;;;;;;;;8.70;93.40;;;;;;5087655;28;19951;-75
2022/03/02 09:02:05;;;;;;;;;;;8.70;93.50;;;;;;5088046;28;19920;-75
2022/03/02 09:04:33;;;;;;;;;;;8.70;93.50;;;;;;5089463;28;19912;-75
2022/03/02 09:07:00;;;;;;;;;;;8.70;93.60;;;;;;5088326;28;19908;-76
2022/03/02 09:09:26;;;;;;;;;;;8.70;93.60;;;;;;5086785;28;19959;-75
2022/03/02 09:11:52;;;;;;;;;;;8.70;93.60;;;;;;5088173;28;19944;-76
2022/03/02 09:14:18;;;;;;;;;;;8.80;93.60;;;;;;5087068;28;19913;-76
2022/03/02 09:16:44;;;;;;;;;;;8.80;93.70;;;;;;5087381;28;19919;-76
2022/03/02 09:19:10;;;;;;;;;;;8.80;93.70;;;;;;5088447;28;20435;-77
2022/03/02 09:21:36;;;;;;;;;;;8.80;93.80;;;;;;5088544;28;19950;-75
2022/03/02 09:24:02;;;;;;;;;;;8.80;93.70;;;;;;5088882;28;20416;-75
2022/03/02 09:26:27;;;;;;;;;;;8.90;93.90;;;;;;5088531;28;19912;-76
2022/03/02 09:28:53;;;;;;;;;;;8.90;93.90;;;;;;5088709;28;19948;-76
2022/03/02 09:31:20;;;;;;;;;;;8.90;93.80;;;;;;5087974;28;19931;-76
2022/03/02 09:33:47;;;;;;;;;;;8.90;93.90;;;;;;5088299;28;19908;-75
2022/03/02 09:36:12;;;;;;;;;;;8.90;93.90;;;;;;5088393;28;20003;-76
2022/03/02 09:38:39;;;;;;;;;;;8.90;93.90;;;;;;5086864;28;19995;-75
2022/03/02 09:41:05;;;;;;;;;;;9.00;94.00;;;;;;5086427;28;19927;-76
2022/03/02 09:43:32;;;;;;;;;;;8.90;93.90;;;;;;5088305;28;19934;-74
2022/03/02 09:46:01;;;;;;;;;;;8.90;93.90;;;;;;5088324;28;19908;-75
2022/03/02 09:48:26;;;;;;;;;;;9.00;94.00;;;;;;5091649;28;19915;-76
2022/03/02 09:50:52;;;;;;;;;;;9.00;93.90;;;;;;5092203;28;20372;-76
2022/03/02 09:53:19;;;;;;;;;;;9.00;94.10;;;;;;5092088;28;19908;-76
2022/03/02 09:55:45;;;;;;;;;;;9.10;94.20;;;;;;5091628;28;19912;-76
2022/03/02 09:58:12;;;;;;;;;;;9.10;94.10;;;;;;5090592;28;20363;-75
2022/03/02 10:00:38;;;;;;;;;;;9.00;94.10;;;;;;5091840;28;19912;-76
2022/03/02 10:03:09;;;;;;;;;;;9.10;94.20;;;;;;5092315;28;19939;-75
2022/03/02 10:05:35;;;;;;;;;;;9.10;94.40;;;;;;5088972;28;20002;-75
2022/03/02 10:08:03;;;;;;;;;;;9.20;94.40;;;;;;5092450;28;20333;-73
2022/03/02 10:10:32;;;;;;;;;;;9.20;94.40;;;;;;5092921;28;19913;-68
2022/03/02 10:12:59;;;;;;;;;;;9.30;94.50;;;;;;5090974;28;19954;-75
2022/03/02 10:15:24;;;;;;;;;;;9.30;94.40;;;;;;5091790;28;19908;-75
2022/03/02 10:17:51;;;;;;;;;;;9.40;94.40;;;;;;5093744;28;19931;-75
2022/03/02 10:20:21;;;;;;;;;;;9.40;94.50;;;;;;5091214;28;19912;-75
2022/03/02 10:22:56;;;;;;;;;;;9.50;94.40;;;;;;5091518;28;19973;-75
2022/03/02 10:25:29;;;;;;;;;;;9.50;94.40;;;;;;5090291;28;19927;-74
2022/03/02 10:28:04;;;;;;;;;;;9.60;94.60;;;;;;5089326;28;20273;-74
2022/03/02 10:30:41;;;;;;;;;;;9.60;94.50;;;;;;5088953;28;19924;-75
2022/03/02 10:33:23;;;;;;;;;;;9.70;94.60;;;;;;5091048;28;20278;-74
2022/03/02 10:35:53;;;;;;;;;;;9.80;94.50;;;;;;5088454;28;19915;-73
2022/03/02 10:38:38;;;;;;;;;;;9.90;94.50;;;;;;5089087;28;19908;-74
2022/03/02 10:41:12;;;;;;;;;;;9.90;94.50;;;;;;5091256;28;19916;-73
2022/03/02 10:43:51;;;;;;;;;;;10.00;94.70;;;;;;5091172;28;19916;-73
2022/03/02 10:46:22;;;;;;;;;;;10.10;94.80;;;;;;5089139;28;19915;-74
2022/03/02 10:49:08;;;;;;;;;;;10.20;94.60;;;;;;5090946;28;19927;-74
2022/03/02 10:54:26;;;;;;;;;;;10.40;94.70;;;;;;5089897;28;20280;-74
2022/03/02 10:57:00;;;;;;;;;;;10.40;94.50;;;;;;5091009;28;19922;-74
2022/03/02 10:59:26;;;;;;;;;;;10.50;94.70;;;;;;5090516;28;19911;-74
2022/03/02 11:01:53;;;;;;;;;;;10.50;94.60;;;;;;5073781;28;20000;-74
2022/03/02 11:04:20;;;;;;;;;;;10.50;94.70;;;;;;5089313;28;19917;-73
2022/03/02 11:06:46;;;;;;;;;;;10.60;94.60;;;;;;5090890;28;19912;-74
2022/03/02 11:09:15;;;;;;;;;;;10.60;94.60;;;;;;5091038;28;19914;-72
2022/03/02 11:11:41;;;;;;;;;;;10.60;94.60;;;;;;5091187;28;19912;-74
2022/03/02 11:14:08;;;;;;;;;;;10.60;94.60;;;;;;5090986;28;19908;-73
2022/03/02 11:16:33;;;;;;;;;;;10.60;94.50;;;;;;5089481;28;19942;-73
2022/03/02 11:19:09;;;;;;;;;;;10.60;94.60;;;;;;5090617;28;19912;-72
2022/03/02 11:21:36;;;;;;;;;;;10.60;94.50;;;;;;5090830;28;19912;-73
2022/03/02 11:24:04;;;;;;;;;;;10.50;94.60;;;;;;5090784;28;20393;-73
2022/03/02 11:26:40;;;;;;;;;;;10.50;94.60;;;;;;5090962;28;20252;-75
2022/03/02 11:29:06;;;;;;;;;;;10.50;94.60;;;;;;5090915;28;19912;-72
2022/03/02 11:31:38;;;;;;;;;;;10.50;94.50;;;;;;5090174;28;19931;-73
2022/03/02 11:34:14;;;;;;;;;;;10.50;94.60;;;;;;5089322;28;20330;-73
2022/03/02 11:36:41;;;;;;;;;;;10.50;94.60;;;;;;5090653;28;19934;-73
2022/03/02 11:39:08;;;;;;;;;;;10.60;94.60;;;;;;5090705;28;20017;-73
2022/03/02 11:41:34;;;;;;;;;;;10.60;94.60;;;;;;5090520;28;19920;-73
2022/03/02 11:44:01;;;;;;;;;;;10.60;94.60;;;;;;5090266;28;20214;-72
2022/03/02 11:46:26;;;;;;;;;;;10.60;94.60;;;;;;5090296;28;19913;-74
2022/03/02 11:48:53;;;;;;;;;;;10.70;94.60;;;;;;5089026;28;19909;-72
2022/03/02 11:51:23;;;;;;;;;;;10.70;94.60;;;;;;5088581;28;19920;-72
2022/03/02 11:53:53;;;;;;;;;;;10.80;94.70;;;;;;5090095;28;20019;-71
2022/03/02 11:56:20;;;;;;;;;;;10.90;94.70;;;;;;5087510;28;19915;-73
2022/03/02 11:59:00;;;;;;;;;;;10.90;94.70;;;;;;5089545;28;19999;-72
2022/03/02 12:01:36;;;;;;;;;;;11.00;94.70;;;;;;5088967;28;20293;-64
2022/03/02 12:04:03;;;;;;;;;;;11.00;94.60;;;;;;5089601;28;19916;-72
2022/03/02 12:06:29;;;;;;;;;;;11.00;94.60;;;;;;5089567;28;19919;-73
2022/03/02 12:08:56;;;;;;;;;;;11.00;94.50;;;;;;5088077;28;19958;-74
2022/03/02 12:11:23;;;;;;;;;;;10.90;94.50;;;;;;5087073;28;19916;-73
2022/03/02 12:14:16;;;;;;;;;;;10.90;94.60;;;;;;5087810;28;20329;-74
2022/03/02 12:16:43;;;;;;;;;;;10.90;94.60;;;;;;5089935;28;19924;-73
2022/03/02 12:19:21;;;;;;;;;;;10.80;94.70;;;;;;5090308;28;19916;-72
2022/03/02 12:21:48;;;;;;;;;;;10.80;94.80;;;;;;5088476;28;19922;-74
2022/03/02 12:24:21;;;;;;;;;;;10.90;94.80;;;;;;5088648;28;19912;-74
2022/03/02 12:26:49;;;;;;;;;;;10.90;94.90;;;;;;5088965;28;19923;-74
2022/03/02 12:29:15;;;;;;;;;;;11.00;94.90;;;;;;5089165;28;19970;-73
2022/03/02 12:31:41;;;;;;;;;;;11.00;94.90;;;;;;5088833;28;19928;-74
2022/03/02 12:34:13;;;;;;;;;;;11.10;94.90;;;;;;5088464;28;20303;-73
2022/03/02 12:36:40;;;;;;;;;;;11.10;94.90;;;;;;5089554;28;19915;-72
2022/03/02 12:39:05;;;;;;;;;;;11.20;94.90;;;;;;5088743;28;19958;-74
2022/03/02 12:41:31;;;;;;;;;;;11.40;95.10;;;;;;5088878;28;19980;-72
2022/03/02 12:43:58;;;;;;;;;;;11.50;95.10;;;;;;5088693;28;19912;-72
2022/03/02 12:46:24;;;;;;;;;;;11.70;95.10;;;;;;5087449;28;19915;-75
2022/03/02 12:48:50;;;;;;;;;;;11.90;95.00;;;;;;5088795;28;19999;-73
2022/03/02 12:51:17;;;;;;;;;;;12.00;94.90;;;;;;5089006;28;20026;-72
2022/03/02 12:53:43;;;;;;;;;;;12.10;94.90;;;;;;5088490;28;19962;-72
2022/03/02 12:56:08;;;;;;;;;;;12.30;94.80;;;;;;5088573;28;19908;-73
2022/03/02 12:58:34;;;;;;;;;;;12.30;94.70;;;;;;5088369;28;19986;-73
2022/03/02 13:00:59;;;;;;;;;;;12.30;94.60;;;;;;5087224;28;20034;-72
2022/03/02 13:03:29;;;;;;;;;;;12.30;94.70;;;;;;5088528;28;19923;-73
2022/03/02 13:05:59;;;;;;;;;;;12.30;94.70;;;;;;5082214;28;19931;-70
2022/03/02 13:08:28;;;;;;;;;;;12.30;94.60;;;;;;5088486;28;19914;-72
2022/03/02 13:10:53;;;;;;;;;;;12.30;94.60;;;;;;5082994;28;19912;-73
2022/03/02 13:13:36;;;;;;;;;;;12.20;94.60;;;;;;5088383;28;19912;-74
2022/03/02 13:16:17;;;;;;;;;;;12.20;94.70;;;;;;5092914;28;20280;-75
2022/03/02 13:18:43;;;;;;;;;;;12.20;94.70;;;;;;5087639;28;19919;-74
2022/03/02 13:21:25;;;;;;;;;;;12.20;94.70;;;;;;5097311;28;19916;-73
2022/03/02 13:24:10;;;;;;;;;;;12.20;94.80;;;;;;5103870;28;19919;-74
2022/03/02 13:26:56;;;;;;;;;;;12.10;94.70;;;;;;5100111;28;20006;-75
2022/03/02 13:29:24;;;;;;;;;;;12.20;94.80;;;;;;5067275;28;19916;-73
2022/03/02 13:31:51;;;;;;;;;;;12.20;94.80;;;;;;5067943;28;19932;-74
2022/03/02 13:34:19;;;;;;;;;;;12.20;94.90;;;;;;5067622;28;20121;-73
2022/03/02 13:36:47;;;;;;;;;;;12.30;95.00;;;;;;5066866;28;19913;-73
2022/03/02 13:39:19;;;;;;;;;;;12.60;95.10;;;;;;5068129;28;19909;-74
2022/03/02 13:41:48;;;;;;;;;;;12.70;95.00;;;;;;5067905;28;19930;-73
2022/03/02 13:44:37;;;;;;;;;;;12.90;95.00;;;;;;5068383;28;19909;-74
2022/03/02 13:47:08;;;;;;;;;;;13.00;94.90;;;;;;5074970;28;19909;-74
2022/03/02 13:52:12;;;;;;;;;;;13.00;94.60;;;;;;5067378;28;19909;-75
2022/03/02 13:54:38;;;;;;;;;;;12.90;94.60;;;;;;5067937;28;19914;-74
2022/03/02 13:57:04;;;;;;;;;;;12.80;94.60;;;;;;5067822;28;20307;-74
2022/03/02 13:59:30;;;;;;;;;;;12.80;94.60;;;;;;5067738;28;20228;-74
2022/03/02 14:01:55;;;;;;;;;;;12.80;94.80;;;;;;5067275;28;19919;-74
2022/03/02 14:04:22;;;;;;;;;;;12.80;94.80;;;;;;5068243;28;19944;-73
2022/03/02 14:07:01;;;;;;;;;;;12.80;94.90;;;;;;5067473;28;20266;-74
2022/03/02 14:09:26;;;;;;;;;;;12.90;94.90;;;;;;5066702;28;20290;-73
2022/03/02 14:11:55;;;;;;;;;;;13.00;94.90;;;;;;5067027;28;19917;-74
2022/03/02 14:14:21;;;;;;;;;;;13.10;94.90;;;;;;5068398;28;19961;-74
2022/03/02 14:17:07;;;;;;;;;;;13.20;94.80;;;;;;5068576;28;20373;-75
2022/03/02 14:19:35;;;;;;;;;;;13.20;94.80;;;;;;5068107;28;19913;-75
2022/03/02 14:22:05;;;;;;;;;;;13.20;94.70;;;;;;5067717;28;19916;-74
2022/03/02 14:24:32;;;;;;;;;;;13.20;94.70;;;;;;5067855;28;20247;-74
2022/03/02 14:27:02;;;;;;;;;;;13.20;94.70;;;;;;5068468;28;19943;-74
2022/03/02 14:29:29;;;;;;;;;;;13.20;94.70;;;;;;5069452;28;19908;-75
2022/03/02 14:31:56;;;;;;;;;;;13.20;94.70;;;;;;5066223;28;19920;-74
2022/03/02 14:34:22;;;;;;;;;;;13.20;94.60;;;;;;5069422;28;19924;-75